Timonium, Maryland
Current Conditions -  °F | °C
As of 10:45 AM on Wednesday 22 Oct 2014 (Local Time) from KMTN Reporting Station
Drizzle Drizzle  
Wind Chill: 55°   Ceiling: 6500
Heat Index: 55°   Visibility: 7mi
Dew Point: 54°   Wind: 14mph
Humidity: 94%   Direction: 320°NW
Pressure: 29.92"   Gusts: 17mph
Location:  39.4211°N, 76.6266°W
Report Text: KMTN 221445Z 32012G15KT 7SM -DZ SCT014 SCT024 BKN065 13/12 A2992
Loading
Personal Weather Stations






























Interactive Weather Map New forecast layout! Learn more

10-Day Weather Forecast

Advertisements
Track Severe Weather on mobile